createdAt,value
2019-03-08T00:00:45.460Z,0.00
2019-03-08T00:01:45.454Z,0.00
2019-03-08T00:02:45.426Z,0.00
2019-03-08T00:03:45.423Z,0.00
2019-03-08T00:04:45.407Z,0.00
2019-03-08T00:05:45.396Z,0.00
2019-03-08T00:06:45.391Z,0.00
2019-03-08T00:07:45.375Z,0.00
2019-03-08T00:08:45.358Z,0.00
2019-03-08T00:09:45.352Z,0.00
2019-03-08T00:10:45.337Z,0.00
2019-03-08T00:11:45.328Z,0.00
2019-03-08T00:12:45.335Z,0.00
2019-03-08T00:13:45.315Z,0.00
2019-03-08T00:14:45.295Z,0.00
2019-03-08T00:15:45.290Z,0.00
2019-03-08T00:16:45.296Z,0.00
2019-03-08T00:17:45.272Z,0.00
2019-03-08T00:18:45.263Z,0.00
2019-03-08T00:19:45.243Z,0.00
2019-03-08T00:20:45.227Z,0.00
2019-03-08T00:21:45.222Z,0.00
2019-03-08T00:22:45.208Z,0.00
2019-03-08T00:23:45.197Z,0.00
2019-03-08T00:24:45.218Z,0.00
2019-03-08T00:25:45.187Z,0.00
2019-03-08T00:26:45.166Z,0.00
2019-03-08T00:27:45.156Z,0.00
2019-03-08T00:28:45.146Z,0.00
2019-03-08T00:29:45.135Z,0.00
2019-03-08T00:30:45.123Z,0.00
2019-03-08T00:31:45.116Z,0.00
2019-03-08T00:32:45.104Z,0.00
2019-03-08T00:33:45.090Z,0.00
2019-03-08T00:34:45.092Z,0.00
2019-03-08T00:35:45.073Z,0.00
2019-03-08T00:36:45.066Z,0.00
2019-03-08T00:37:45.054Z,0.00
2019-03-08T00:38:45.034Z,0.00
2019-03-08T00:39:45.026Z,0.00
2019-03-08T00:40:45.019Z,0.00
2019-03-08T00:41:45.010Z,0.00
2019-03-08T00:42:44.996Z,0.00
2019-03-08T00:43:44.984Z,0.00
2019-03-08T00:44:44.970Z,0.00
2019-03-08T00:45:44.960Z,0.00
2019-03-08T00:46:44.954Z,0.00
2019-03-08T00:47:44.962Z,0.00
2019-03-08T00:48:44.931Z,0.00
2019-03-08T00:49:44.917Z,0.00
2019-03-08T00:50:44.911Z,0.00
2019-03-08T00:51:44.906Z,0.00
2019-03-08T00:52:44.889Z,0.00
2019-03-08T00:53:44.875Z,0.00
2019-03-08T00:54:44.859Z,0.00
2019-03-08T00:55:44.860Z,0.00
2019-03-08T00:56:44.839Z,0.00
2019-03-08T00:57:44.829Z,0.00
2019-03-08T00:58:44.829Z,0.00
2019-03-08T00:59:44.822Z,0.00
2019-03-08T01:00:44.819Z,0.00
2019-03-08T01:01:44.800Z,0.00
2019-03-08T01:02:44.774Z,0.00
2019-03-08T01:03:44.759Z,0.00
2019-03-08T01:04:44.758Z,0.00
2019-03-08T01:05:44.742Z,0.00
2019-03-08T01:06:44.734Z,0.00
2019-03-08T01:07:44.715Z,0.00
2019-03-08T01:08:44.721Z,0.00
2019-03-08T01:09:44.704Z,0.00
2019-03-08T01:10:44.698Z,0.00
2019-03-08T01:11:45.402Z,0.00
2019-03-08T01:12:44.670Z,0.00
2019-03-08T01:13:44.658Z,0.00
2019-03-08T01:14:44.656Z,0.00
2019-03-08T01:15:44.633Z,0.00
2019-03-08T01:16:44.620Z,0.00
2019-03-08T01:17:44.615Z,0.00
2019-03-08T01:18:44.602Z,0.00
2019-03-08T01:19:44.590Z,0.00
2019-03-08T01:20:44.582Z,0.00
2019-03-08T01:21:44.574Z,0.00
2019-03-08T01:22:44.564Z,0.00
2019-03-08T01:23:44.546Z,0.00
2019-03-08T01:24:44.536Z,0.00
2019-03-08T01:25:44.539Z,0.00
2019-03-08T01:26:44.521Z,0.00
2019-03-08T01:27:44.511Z,0.00
2019-03-08T01:28:44.494Z,0.00
2019-03-08T01:29:44.482Z,0.00
2019-03-08T01:30:44.476Z,0.00
2019-03-08T01:31:44.454Z,0.00
2019-03-08T01:32:44.456Z,0.00
2019-03-08T01:33:44.442Z,0.00
2019-03-08T01:34:44.422Z,0.00
2019-03-08T01:35:44.416Z,0.00
2019-03-08T01:36:44.416Z,0.00
2019-03-08T01:37:44.400Z,0.00
2019-03-08T01:38:44.392Z,0.00
2019-03-08T01:39:44.378Z,0.00
2019-03-08T01:40:44.362Z,0.00
2019-03-08T01:41:44.350Z,0.00
2019-03-08T01:42:44.338Z,0.00
2019-03-08T01:43:44.336Z,0.00
2019-03-08T01:44:44.330Z,0.00
2019-03-08T01:45:44.306Z,0.00
2019-03-08T01:46:44.296Z,0.00
2019-03-08T01:47:44.280Z,0.00
2019-03-08T01:48:44.277Z,0.00
2019-03-08T01:49:44.268Z,0.00
2019-03-08T01:50:44.255Z,0.00
2019-03-08T01:51:44.242Z,0.00
2019-03-08T01:52:44.228Z,0.00
2019-03-08T01:53:44.265Z,0.00
2019-03-08T01:54:44.222Z,0.00
2019-03-08T01:55:44.218Z,0.00
2019-03-08T01:56:44.194Z,0.00
2019-03-08T01:57:44.178Z,0.00
2019-03-08T01:58:44.163Z,0.00
2019-03-08T01:59:44.153Z,0.00
2019-03-08T02:00:44.146Z,0.00
2019-03-08T02:01:44.132Z,0.00
2019-03-08T02:02:44.134Z,0.00
2019-03-08T02:03:44.114Z,0.00
2019-03-08T02:04:44.104Z,0.00
2019-03-08T02:05:44.092Z,0.00
2019-03-08T02:06:44.086Z,0.00
2019-03-08T02:07:44.071Z,0.00
2019-03-08T02:08:44.054Z,0.00
2019-03-08T02:09:44.050Z,0.00
2019-03-08T02:10:44.032Z,0.00
2019-03-08T02:11:44.032Z,0.00
2019-03-08T02:12:44.027Z,0.00
2019-03-08T02:13:44.001Z,0.00
2019-03-08T02:14:43.985Z,0.00
2019-03-08T02:15:43.976Z,0.00
2019-03-08T02:16:43.971Z,0.00
2019-03-08T02:17:43.961Z,0.00
2019-03-08T02:18:43.946Z,0.00
2019-03-08T02:19:43.940Z,0.00
2019-03-08T02:20:43.928Z,0.00
2019-03-08T02:21:43.929Z,0.00
2019-03-08T02:22:43.908Z,0.00
2019-03-08T02:23:43.897Z,0.00
2019-03-08T02:24:43.914Z,0.00
2019-03-08T02:25:45.623Z,0.00
2019-03-08T02:26:43.855Z,0.00
2019-03-08T02:27:43.854Z,0.00
2019-03-08T02:28:43.852Z,0.00
2019-03-08T02:29:43.826Z,0.00
2019-03-08T02:30:43.816Z,0.00
2019-03-08T02:31:43.805Z,0.00
2019-03-08T02:32:43.802Z,0.00
2019-03-08T02:33:43.783Z,0.00
2019-03-08T02:34:43.780Z,0.00
2019-03-08T02:35:43.798Z,0.00
2019-03-08T02:36:43.748Z,0.00
2019-03-08T02:37:43.744Z,0.00
2019-03-08T02:38:43.720Z,0.00
2019-03-08T02:39:43.726Z,0.00
2019-03-08T02:40:43.726Z,0.00
2019-03-08T02:41:43.698Z,0.00
2019-03-08T02:42:43.684Z,0.00
2019-03-08T02:43:43.668Z,0.00
2019-03-08T02:44:43.664Z,0.00
2019-03-08T02:45:43.657Z,0.00
2019-03-08T02:46:43.644Z,0.00
2019-03-08T02:47:43.632Z,0.00
2019-03-08T02:48:43.623Z,0.00
2019-03-08T02:49:43.612Z,0.00
2019-03-08T02:50:43.613Z,0.00
2019-03-08T02:51:43.594Z,0.00
2019-03-08T02:52:43.584Z,0.00
2019-03-08T02:53:43.566Z,0.00
2019-03-08T02:54:43.554Z,0.00
2019-03-08T02:55:43.546Z,0.00
2019-03-08T02:56:43.538Z,0.00
2019-03-08T02:57:43.534Z,0.00
2019-03-08T02:58:43.516Z,0.00
2019-03-08T02:59:43.505Z,0.00
2019-03-08T03:00:43.490Z,0.00
2019-03-08T03:01:43.478Z,0.00
2019-03-08T03:02:43.483Z,0.00
2019-03-08T03:03:43.456Z,0.00
2019-03-08T03:04:43.450Z,0.00
2019-03-08T03:05:43.435Z,0.00
2019-03-08T03:06:43.430Z,0.00
2019-03-08T03:07:43.420Z,0.00
2019-03-08T03:08:43.406Z,0.00
2019-03-08T03:09:43.396Z,0.00
2019-03-08T03:10:43.380Z,0.00
2019-03-08T03:11:43.389Z,0.00
2019-03-08T03:12:43.364Z,0.00
2019-03-08T03:13:43.346Z,0.00
2019-03-08T03:14:43.360Z,0.00
2019-03-08T03:15:43.324Z,0.00
2019-03-08T03:16:43.313Z,0.00
2019-03-08T03:17:43.307Z,0.00
2019-03-08T03:18:43.291Z,0.00
2019-03-08T03:19:43.280Z,0.00
2019-03-08T03:20:43.274Z,0.00
2019-03-08T03:21:43.266Z,0.00
2019-03-08T03:22:43.252Z,0.00
2019-03-08T03:23:43.255Z,0.00
2019-03-08T03:24:43.266Z,0.00
2019-03-08T03:25:43.228Z,0.00
2019-03-08T03:26:43.202Z,0.00
2019-03-08T03:27:43.197Z,0.00
2019-03-08T03:28:43.182Z,0.00
2019-03-08T03:29:43.180Z,0.00
2019-03-08T03:30:43.176Z,0.00
2019-03-08T03:31:43.153Z,0.00
2019-03-08T03:32:43.143Z,0.00
2019-03-08T03:33:43.134Z,0.00
2019-03-08T03:34:43.119Z,0.00
2019-03-08T03:35:43.106Z,0.00
2019-03-08T03:36:43.103Z,0.00
2019-03-08T03:37:43.090Z,0.00
2019-03-08T03:38:43.078Z,0.00
2019-03-08T03:39:43.068Z,0.00
2019-03-08T03:40:43.070Z,0.00
2019-03-08T03:41:43.052Z,0.00
2019-03-08T03:42:43.048Z,0.00
2019-03-08T03:43:43.026Z,0.00
2019-03-08T03:44:43.015Z,0.00
2019-03-08T03:45:43.006Z,0.00
2019-03-08T03:46:42.994Z,0.00
2019-03-08T03:47:43.008Z,0.00
2019-03-08T03:48:42.970Z,0.00
2019-03-08T03:49:42.974Z,0.00
2019-03-08T03:50:42.950Z,0.00
2019-03-08T03:51:42.937Z,0.00
2019-03-08T03:52:42.924Z,0.00
2019-03-08T03:53:42.919Z,0.00
2019-03-08T03:54:42.899Z,0.00
2019-03-08T03:55:42.897Z,0.00
2019-03-08T03:56:42.892Z,0.00
2019-03-08T03:57:42.870Z,0.00
2019-03-08T03:58:42.865Z,0.00
2019-03-08T03:59:42.852Z,0.00
2019-03-08T04:00:42.855Z,0.00
2019-03-08T04:01:42.832Z,0.00
2019-03-08T04:02:42.819Z,0.00
2019-03-08T04:03:42.807Z,0.00
2019-03-08T04:04:42.805Z,0.00
2019-03-08T04:05:42.786Z,0.00
2019-03-08T04:06:42.773Z,0.00
2019-03-08T04:07:42.765Z,0.00
2019-03-08T04:08:42.763Z,0.00
2019-03-08T04:09:42.740Z,0.00
2019-03-08T04:10:42.766Z,0.00
2019-03-08T04:11:42.718Z,0.00
2019-03-08T04:12:42.712Z,0.00
2019-03-08T04:13:42.694Z,0.00
2019-03-08T04:14:42.687Z,0.00
2019-03-08T04:15:42.681Z,0.00
2019-03-08T04:16:42.673Z,0.00
2019-03-08T04:17:42.657Z,0.00
2019-03-08T04:18:42.646Z,0.00
2019-03-08T04:19:42.634Z,0.00
2019-03-08T04:20:42.621Z,0.00
2019-03-08T04:21:42.615Z,0.00
2019-03-08T04:22:42.607Z,0.00
2019-03-08T04:23:42.622Z,0.00
2019-03-08T04:24:42.577Z,0.00
2019-03-08T04:25:42.578Z,0.00
2019-03-08T04:26:42.558Z,0.00
2019-03-08T04:27:42.547Z,0.00
2019-03-08T04:28:42.539Z,0.00
2019-03-08T04:29:42.524Z,0.00
2019-03-08T04:30:42.510Z,0.00
2019-03-08T04:31:42.504Z,0.00
2019-03-08T04:32:42.499Z,0.00
2019-03-08T04:33:42.478Z,0.00
2019-03-08T04:34:42.465Z,0.00
2019-03-08T04:35:42.465Z,0.00
2019-03-08T04:36:42.451Z,0.00
2019-03-08T04:37:42.439Z,0.00
2019-03-08T04:38:42.441Z,0.00
2019-03-08T04:39:42.414Z,0.00
2019-03-08T04:40:42.401Z,0.00
2019-03-08T04:41:42.390Z,0.00
2019-03-08T04:42:42.379Z,0.00
2019-03-08T04:43:42.377Z,0.00
2019-03-08T04:44:42.373Z,0.00
2019-03-08T04:45:42.345Z,0.00
2019-03-08T04:46:42.363Z,0.00
2019-03-08T04:47:42.323Z,0.00
2019-03-08T04:48:42.315Z,0.00
2019-03-08T04:49:42.315Z,0.00
2019-03-08T04:50:42.297Z,0.00
2019-03-08T04:51:42.284Z,0.00
2019-03-08T04:52:42.274Z,0.00
2019-03-08T04:53:42.266Z,0.00
2019-03-08T04:54:42.251Z,0.00
2019-03-08T04:55:42.247Z,0.00
2019-03-08T04:56:42.231Z,0.00
2019-03-08T04:57:42.218Z,0.00
2019-03-08T04:58:42.224Z,0.00
2019-03-08T04:59:42.208Z,0.00
2019-03-08T05:00:42.207Z,0.00
2019-03-08T05:01:42.180Z,0.00
2019-03-08T05:02:42.169Z,0.00
2019-03-08T05:03:42.157Z,0.00
2019-03-08T05:04:42.143Z,0.00
2019-03-08T05:05:42.132Z,0.00
2019-03-08T05:06:42.124Z,0.00
2019-03-08T05:07:42.132Z,0.00
2019-03-08T05:08:42.115Z,0.00
2019-03-08T05:09:42.093Z,0.00
2019-03-08T05:10:42.081Z,0.00
2019-03-08T05:11:42.080Z,4.00
2019-03-08T05:12:42.064Z,4.00
2019-03-08T05:13:42.048Z,0.00
2019-03-08T05:14:42.040Z,0.00
2019-03-08T05:15:42.032Z,4.00
2019-03-08T05:16:42.025Z,4.00
2019-03-08T05:17:42.007Z,4.00
2019-03-08T05:18:41.998Z,4.00
2019-03-08T05:19:41.988Z,4.00
2019-03-08T05:20:41.971Z,4.00
2019-03-08T05:21:41.972Z,4.00
2019-03-08T05:22:41.961Z,4.00
2019-03-08T05:23:41.949Z,4.00
2019-03-08T05:24:41.946Z,8.00
2019-03-08T05:25:41.918Z,8.00
2019-03-08T05:26:41.915Z,4.00
2019-03-08T05:27:41.898Z,12.00
2019-03-08T05:28:41.890Z,12.00
2019-03-08T05:29:41.881Z,12.00
2019-03-08T05:30:41.868Z,12.00
2019-03-08T05:31:41.862Z,16.00
2019-03-08T05:32:41.844Z,16.00
2019-03-08T05:33:41.841Z,20.00
2019-03-08T05:34:41.829Z,20.00
2019-03-08T05:35:41.818Z,20.00
2019-03-08T05:36:41.806Z,24.00
2019-03-08T05:37:41.793Z,24.00
2019-03-08T05:38:41.783Z,28.00
2019-03-08T05:39:41.774Z,32.00
2019-03-08T05:40:41.766Z,36.00
2019-03-08T05:41:41.767Z,40.00
2019-03-08T05:42:41.753Z,44.00
2019-03-08T05:43:41.732Z,44.00
2019-03-08T05:44:41.722Z,44.00
2019-03-08T05:45:41.724Z,48.00
2019-03-08T05:46:41.698Z,48.00
2019-03-08T05:47:41.686Z,48.00
2019-03-08T05:48:41.677Z,52.00
2019-03-08T05:49:41.663Z,56.00
2019-03-08T05:50:41.659Z,64.00
2019-03-08T05:51:41.648Z,72.00
2019-03-08T05:52:41.643Z,80.00
2019-03-08T05:53:41.621Z,80.00
2019-03-08T05:54:41.610Z,80.00
2019-03-08T05:55:41.606Z,88.00
2019-03-08T05:56:41.607Z,92.00
2019-03-08T05:57:41.585Z,92.00
2019-03-08T05:58:41.577Z,96.00
2019-03-08T05:59:41.561Z,104.00
2019-03-08T06:00:41.545Z,100.00
2019-03-08T06:01:41.557Z,104.00
2019-03-08T06:02:41.527Z,128.00
2019-03-08T06:03:41.530Z,144.00
2019-03-08T06:04:41.511Z,180.00
2019-03-08T06:05:41.494Z,236.00
2019-03-08T06:06:41.490Z,316.00
2019-03-08T06:07:41.480Z,356.00
2019-03-08T06:08:41.484Z,340.00
2019-03-08T06:09:41.460Z,300.00
2019-03-08T06:10:41.444Z,268.00
2019-03-08T06:11:41.436Z,260.00
2019-03-08T06:12:41.426Z,252.00
2019-03-08T06:13:41.410Z,252.00
2019-03-08T06:14:41.406Z,260.00
2019-03-08T06:15:41.396Z,280.00
2019-03-08T06:16:41.382Z,272.00
2019-03-08T06:17:41.374Z,268.00
2019-03-08T06:18:41.370Z,268.00
2019-03-08T06:19:41.355Z,280.00
2019-03-08T06:20:41.345Z,276.00
2019-03-08T06:21:41.333Z,280.00
2019-03-08T06:22:41.324Z,324.00
2019-03-08T06:23:41.311Z,384.00
2019-03-08T06:24:41.302Z,416.00
2019-03-08T06:25:41.290Z,460.00
2019-03-08T06:26:41.290Z,536.00
2019-03-08T06:27:41.266Z,620.00
2019-03-08T06:28:41.256Z,760.00
2019-03-08T06:29:41.254Z,744.00
2019-03-08T06:30:41.240Z,680.00
2019-03-08T06:31:41.235Z,692.00
2019-03-08T06:32:41.214Z,692.00
2019-03-08T06:33:41.207Z,732.00
2019-03-08T06:34:41.198Z,648.00
2019-03-08T06:35:41.201Z,636.00
2019-03-08T06:36:41.176Z,608.00
2019-03-08T06:37:41.183Z,616.00
2019-03-08T06:38:41.173Z,740.00
2019-03-08T06:39:41.167Z,724.00
2019-03-08T06:40:41.180Z,708.00
2019-03-08T06:41:41.116Z,624.00
2019-03-08T06:42:41.119Z,612.00
2019-03-08T06:43:41.100Z,576.00
2019-03-08T06:44:41.097Z,540.00
2019-03-08T06:45:41.085Z,540.00
2019-03-08T06:46:41.075Z,528.00
2019-03-08T06:47:41.056Z,536.00
2019-03-08T06:48:41.045Z,440.00
2019-03-08T06:49:41.049Z,408.00
2019-03-08T06:50:41.027Z,416.00
2019-03-08T06:51:41.020Z,416.00
2019-03-08T06:52:41.002Z,384.00
2019-03-08T06:53:40.993Z,364.00
2019-03-08T06:54:40.982Z,448.00
2019-03-08T06:55:40.974Z,452.00
2019-03-08T06:56:40.956Z,468.00
2019-03-08T06:57:40.961Z,456.00
2019-03-08T06:58:40.950Z,424.00
2019-03-08T06:59:40.938Z,372.00
2019-03-08T07:00:40.930Z,360.00
2019-03-08T07:01:40.920Z,404.00
2019-03-08T07:02:40.894Z,364.00
2019-03-08T07:03:40.890Z,332.00
2019-03-08T07:04:40.883Z,320.00
2019-03-08T07:05:40.868Z,348.00
2019-03-08T07:06:40.866Z,336.00
2019-03-08T07:07:40.871Z,356.00
2019-03-08T07:08:40.841Z,400.00
2019-03-08T07:09:40.826Z,420.00
2019-03-08T07:10:40.812Z,408.00
2019-03-08T07:11:40.806Z,432.00
2019-03-08T07:12:40.798Z,524.00
2019-03-08T07:13:40.784Z,580.00
2019-03-08T07:14:40.768Z,564.00
2019-03-08T07:15:40.760Z,528.00
2019-03-08T07:16:40.748Z,564.00
2019-03-08T07:17:40.737Z,604.00
2019-03-08T07:18:40.724Z,648.00
2019-03-08T07:19:41.887Z,652.00
2019-03-08T07:20:40.704Z,636.00
2019-03-08T07:21:40.702Z,668.00
2019-03-08T07:22:40.690Z,624.00
2019-03-08T07:23:40.676Z,644.00
2019-03-08T07:24:40.665Z,672.00
2019-03-08T07:25:40.656Z,656.00
2019-03-08T07:26:40.649Z,656.00
2019-03-08T07:27:40.634Z,724.00
2019-03-08T07:28:40.623Z,812.00
2019-03-08T07:29:40.618Z,792.00
2019-03-08T07:30:40.629Z,880.00
2019-03-08T07:31:40.596Z,984.00
2019-03-08T07:32:40.578Z,1036.00
2019-03-08T07:33:40.566Z,1080.00
2019-03-08T07:34:40.558Z,1068.00
2019-03-08T07:35:40.553Z,1004.00
2019-03-08T07:36:40.540Z,1024.00
2019-03-08T07:37:40.528Z,1068.00
2019-03-08T07:38:40.514Z,1088.00
2019-03-08T07:39:40.515Z,1152.00
2019-03-08T07:40:40.495Z,1244.00
2019-03-08T07:41:40.486Z,1132.00
2019-03-08T07:42:40.467Z,1108.00
2019-03-08T07:43:40.462Z,1104.00
2019-03-08T07:44:40.451Z,1232.00
2019-03-08T07:45:40.440Z,1280.00
2019-03-08T07:46:40.438Z,1288.00
2019-03-08T07:47:40.414Z,1212.00
2019-03-08T07:48:40.411Z,1248.00
2019-03-08T07:49:40.409Z,1292.00
2019-03-08T07:50:40.383Z,1300.00
2019-03-08T07:51:40.379Z,1308.00
2019-03-08T07:52:40.370Z,1212.00
2019-03-08T07:53:40.352Z,1340.00
2019-03-08T07:54:40.339Z,1376.00
2019-03-08T07:55:40.334Z,1352.00
2019-03-08T07:56:40.325Z,1356.00
2019-03-08T07:57:40.314Z,1540.00
2019-03-08T07:58:40.310Z,1488.00
2019-03-08T07:59:40.291Z,1408.00
2019-03-08T08:00:40.284Z,1680.00
2019-03-08T08:01:40.274Z,1872.00
2019-03-08T08:02:40.258Z,2064.00
2019-03-08T08:03:40.256Z,2112.00
2019-03-08T08:04:40.229Z,2804.00
2019-03-08T08:05:40.234Z,3376.00
2019-03-08T08:06:40.230Z,3524.00
2019-03-08T08:07:40.258Z,3500.00
2019-03-08T08:08:40.192Z,3324.00
2019-03-08T08:09:40.190Z,2196.00
2019-03-08T08:10:40.183Z,1860.00
2019-03-08T08:11:40.161Z,1540.00
2019-03-08T08:12:40.153Z,1204.00
2019-03-08T08:13:40.144Z,864.00
2019-03-08T08:14:40.132Z,732.00
2019-03-08T08:15:40.130Z,644.00
2019-03-08T08:16:40.110Z,588.00
2019-03-08T08:17:40.101Z,548.00
2019-03-08T08:18:40.094Z,532.00
2019-03-08T08:19:40.079Z,516.00
2019-03-08T08:20:40.074Z,528.00
2019-03-08T08:21:40.057Z,548.00
2019-03-08T08:22:40.046Z,588.00
2019-03-08T08:23:40.038Z,600.00
2019-03-08T08:24:40.033Z,628.00
2019-03-08T08:25:40.017Z,688.00
2019-03-08T08:26:40.047Z,772.00
2019-03-08T08:27:39.996Z,968.00
2019-03-08T08:28:39.982Z,1224.00
2019-03-08T08:29:39.990Z,1220.00
2019-03-08T08:30:39.972Z,1444.00
2019-03-08T08:31:39.956Z,1776.00
2019-03-08T08:32:39.950Z,1256.00
2019-03-08T08:33:39.932Z,1116.00
2019-03-08T08:34:39.920Z,864.00
2019-03-08T08:35:39.911Z,836.00
2019-03-08T08:36:39.895Z,832.00
2019-03-08T08:37:39.895Z,844.00
2019-03-08T08:38:39.894Z,968.00
2019-03-08T08:39:41.044Z,1256.00
2019-03-08T08:40:39.859Z,1000.00
2019-03-08T08:41:39.850Z,912.00
2019-03-08T08:42:39.832Z,892.00
2019-03-08T08:43:39.832Z,892.00
2019-03-08T08:44:39.815Z,828.00
2019-03-08T08:45:39.812Z,800.00
2019-03-08T08:46:39.797Z,792.00
2019-03-08T08:47:39.784Z,808.00
2019-03-08T08:48:39.767Z,792.00
2019-03-08T08:49:39.758Z,792.00
2019-03-08T08:50:39.748Z,796.00
2019-03-08T08:51:39.737Z,788.00
2019-03-08T08:52:39.719Z,900.00
2019-03-08T08:53:39.724Z,1024.00
2019-03-08T08:54:39.754Z,1276.00
2019-03-08T08:55:39.699Z,1624.00
2019-03-08T08:56:39.682Z,1572.00
2019-03-08T08:57:39.671Z,1364.00
2019-03-08T08:58:39.661Z,1212.00
2019-03-08T08:59:39.655Z,1020.00
2019-03-08T09:00:39.661Z,980.00
2019-03-08T09:01:39.631Z,1044.00
2019-03-08T09:02:39.624Z,1072.00
2019-03-08T09:03:39.634Z,1104.00
2019-03-08T09:04:39.598Z,1168.00
2019-03-08T09:05:39.604Z,1336.00
2019-03-08T09:06:39.586Z,1360.00
2019-03-08T09:07:39.561Z,1472.00
2019-03-08T09:08:39.557Z,1432.00
2019-03-08T09:09:39.545Z,1216.00
2019-03-08T09:10:39.538Z,1320.00
2019-03-08T09:11:45.928Z,1348.00
2019-03-08T09:12:40.510Z,1384.00
2019-03-08T09:13:39.504Z,1284.00
2019-03-08T09:14:39.497Z,1264.00
2019-03-08T09:15:39.487Z,1312.00
2019-03-08T09:16:39.480Z,1500.00
2019-03-08T09:17:39.468Z,1672.00
2019-03-08T09:18:39.460Z,1628.00
2019-03-08T09:19:39.438Z,1760.00
2019-03-08T09:20:39.430Z,1556.00
2019-03-08T09:21:39.422Z,1500.00
2019-03-08T09:22:39.409Z,1636.00
2019-03-08T09:23:39.410Z,1868.00
2019-03-08T09:24:39.400Z,1716.00
2019-03-08T09:25:39.374Z,1944.00
2019-03-08T09:26:39.368Z,2588.00
2019-03-08T09:27:39.353Z,2352.00
2019-03-08T09:28:39.356Z,1968.00
2019-03-08T09:29:41.520Z,1780.00
2019-03-08T09:30:39.325Z,1712.00
2019-03-08T09:31:39.314Z,2000.00
2019-03-08T09:32:39.296Z,2224.00
2019-03-08T09:33:39.297Z,2608.00
2019-03-08T09:34:39.287Z,2384.00
2019-03-08T09:35:39.287Z,2152.00
2019-03-08T09:36:39.263Z,2196.00
2019-03-08T09:37:39.246Z,2588.00
2019-03-08T09:38:39.242Z,3088.00
2019-03-08T09:39:39.222Z,3636.00
2019-03-08T09:40:39.214Z,3636.00
2019-03-08T09:41:39.198Z,4592.00
2019-03-08T09:42:39.246Z,3764.00
2019-03-08T09:43:39.178Z,3916.00
2019-03-08T09:44:39.183Z,3340.00
2019-03-08T09:45:39.158Z,3164.00
2019-03-08T09:46:39.158Z,3072.00
2019-03-08T09:47:39.134Z,3120.00
2019-03-08T09:48:39.373Z,2972.00
2019-03-08T09:49:39.111Z,2924.00
2019-03-08T09:50:39.102Z,2700.00
2019-03-08T09:51:39.120Z,2700.00
2019-03-08T09:52:39.090Z,2452.00
2019-03-08T09:53:39.068Z,2252.00
2019-03-08T09:54:39.060Z,1984.00
2019-03-08T09:55:39.044Z,2404.00
2019-03-08T09:56:39.039Z,2264.00
2019-03-08T09:57:39.025Z,1872.00
2019-03-08T09:58:39.018Z,1856.00
2019-03-08T09:59:39.038Z,1628.00
2019-03-08T10:00:38.998Z,1492.00
2019-03-08T10:01:38.988Z,1652.00
2019-03-08T10:02:38.979Z,2028.00
2019-03-08T10:03:38.990Z,2288.00
2019-03-08T10:04:38.973Z,2724.00
2019-03-08T10:05:38.979Z,3672.00
2019-03-08T10:06:38.929Z,3036.00
2019-03-08T10:07:38.923Z,2776.00
2019-03-08T10:08:38.923Z,3672.00
2019-03-08T10:09:38.896Z,4220.00
2019-03-08T10:10:38.886Z,5232.00
2019-03-08T10:11:38.869Z,4352.00
2019-03-08T10:12:38.867Z,5104.00
2019-03-08T10:13:38.864Z,7600.00
2019-03-08T10:14:38.847Z,7564.00
2019-03-08T10:15:38.829Z,7616.00
2019-03-08T10:16:38.821Z,4964.00
2019-03-08T10:17:38.812Z,3916.00
2019-03-08T10:18:40.221Z,4520.00
2019-03-08T10:19:38.791Z,4640.00
2019-03-08T10:20:38.782Z,4544.00
2019-03-08T10:21:38.768Z,5512.00
2019-03-08T10:22:38.761Z,6132.00
2019-03-08T10:23:38.751Z,6936.00
2019-03-08T10:24:38.744Z,7872.00
2019-03-08T10:25:38.723Z,8156.00
2019-03-08T10:26:38.727Z,7136.00
2019-03-08T10:27:38.695Z,6340.00
2019-03-08T10:28:38.689Z,6216.00
2019-03-08T10:29:38.680Z,7632.00
2019-03-08T10:30:38.663Z,10840.00
2019-03-08T10:31:38.662Z,18048.00
2019-03-08T10:32:38.640Z,21664.00
2019-03-08T10:33:46.282Z,19552.00
2019-03-08T10:34:39.621Z,24992.00
2019-03-08T10:35:38.607Z,15584.00
2019-03-08T10:36:38.610Z,26464.00
2019-03-08T10:37:38.598Z,17920.00
2019-03-08T10:38:38.579Z,15032.00
2019-03-08T10:39:38.570Z,18464.00
2019-03-08T10:40:38.574Z,26912.00
2019-03-08T10:41:38.543Z,30976.00
2019-03-08T10:42:38.535Z,32928.00
2019-03-08T10:43:38.529Z,38400.00
2019-03-08T10:44:38.515Z,60096.00
2019-03-08T10:45:38.503Z,12480.00
2019-03-08T10:46:38.500Z,10172.00
2019-03-08T10:47:38.487Z,9456.00
2019-03-08T10:48:38.483Z,50432.00
2019-03-08T10:49:38.460Z,26592.00
2019-03-08T10:50:38.450Z,30688.00
2019-03-08T10:51:38.434Z,15504.00
2019-03-08T10:52:38.425Z,15032.00
2019-03-08T10:53:38.420Z,18560.00
2019-03-08T10:54:38.418Z,11216.00
2019-03-08T10:55:38.434Z,10864.00
2019-03-08T10:56:38.391Z,7528.00
2019-03-08T10:57:38.375Z,7912.00
2019-03-08T10:58:38.367Z,6636.00
2019-03-08T10:59:38.354Z,5540.00
2019-03-08T11:00:38.339Z,3708.00
2019-03-08T11:01:38.330Z,3280.00
2019-03-08T11:02:38.334Z,5080.00
2019-03-08T11:03:38.333Z,8220.00
2019-03-08T11:04:38.300Z,10956.00
2019-03-08T11:05:38.316Z,18784.00
2019-03-08T11:06:38.280Z,16928.00
2019-03-08T11:07:38.271Z,12300.00
2019-03-08T11:08:38.268Z,9048.00
2019-03-08T11:09:38.242Z,7076.00
2019-03-08T11:10:38.232Z,4248.00
2019-03-08T11:11:38.222Z,2764.00
2019-03-08T11:12:38.211Z,2472.00
2019-03-08T11:13:43.249Z,2404.00
2019-03-08T11:14:39.194Z,2536.00
2019-03-08T11:15:38.177Z,2396.00
2019-03-08T11:16:38.336Z,2016.00
2019-03-08T11:17:38.161Z,2420.00
2019-03-08T11:18:38.142Z,2700.00
2019-03-08T11:19:38.143Z,2708.00
2019-03-08T11:20:38.135Z,1852.00
2019-03-08T11:21:38.214Z,1816.00
2019-03-08T11:22:38.106Z,1296.00
2019-03-08T11:23:38.089Z,1024.00
2019-03-08T11:24:38.081Z,808.00
2019-03-08T11:25:38.118Z,780.00
2019-03-08T11:26:38.066Z,892.00
2019-03-08T11:27:38.062Z,800.00
2019-03-08T11:28:38.039Z,720.00
2019-03-08T11:29:38.032Z,700.00
2019-03-08T11:30:38.023Z,748.00
2019-03-08T11:31:38.010Z,680.00
2019-03-08T11:32:37.994Z,712.00
2019-03-08T11:33:37.987Z,748.00
2019-03-08T11:34:37.968Z,812.00
2019-03-08T11:35:37.960Z,832.00
2019-03-08T11:36:37.949Z,888.00
2019-03-08T11:37:37.942Z,960.00
2019-03-08T11:38:37.937Z,1052.00
2019-03-08T11:39:37.948Z,1032.00
2019-03-08T11:40:37.906Z,1088.00
2019-03-08T11:41:37.896Z,1208.00
2019-03-08T11:42:37.884Z,1552.00
2019-03-08T11:43:37.878Z,2320.00
2019-03-08T11:44:37.876Z,3608.00
2019-03-08T11:45:37.856Z,4660.00
2019-03-08T11:46:37.844Z,5972.00
2019-03-08T11:47:37.833Z,8836.00
2019-03-08T11:48:37.830Z,8772.00
2019-03-08T11:49:37.814Z,8396.00
2019-03-08T11:50:37.806Z,7712.00
2019-03-08T11:51:37.782Z,7044.00
2019-03-08T11:52:37.785Z,6576.00
2019-03-08T11:53:37.774Z,6576.00
2019-03-08T11:54:40.729Z,6872.00
2019-03-08T11:55:37.751Z,7540.00
2019-03-08T11:56:37.745Z,7908.00
2019-03-08T11:57:37.721Z,8644.00
2019-03-08T11:58:37.738Z,9452.00
2019-03-08T11:59:37.717Z,8628.00
2019-03-08T12:00:37.727Z,7660.00
2019-03-08T12:01:37.705Z,9036.00
2019-03-08T12:02:38.175Z,9840.00
2019-03-08T12:03:37.669Z,8804.00
2019-03-08T12:04:37.670Z,9588.00
2019-03-08T12:05:37.663Z,8860.00
2019-03-08T12:06:37.640Z,9788.00
2019-03-08T12:07:37.646Z,9404.00
2019-03-08T12:08:37.663Z,11512.00
2019-03-08T12:09:37.600Z,9564.00
2019-03-08T12:10:37.595Z,8544.00
2019-03-08T12:11:37.587Z,9112.00
2019-03-08T12:12:37.577Z,7452.00
2019-03-08T12:13:37.587Z,6696.00
2019-03-08T12:14:37.542Z,6304.00
2019-03-08T12:15:37.539Z,7656.00
2019-03-08T12:16:37.528Z,7432.00
2019-03-08T12:17:37.507Z,7324.00
2019-03-08T12:18:37.498Z,6808.00
2019-03-08T12:19:37.488Z,6636.00
2019-03-08T12:20:37.482Z,7696.00
2019-03-08T12:21:37.484Z,8944.00
2019-03-08T12:22:37.494Z,6220.00
2019-03-08T12:23:37.459Z,8112.00
2019-03-08T12:24:37.461Z,7984.00
2019-03-08T12:25:37.444Z,7580.00
2019-03-08T12:26:37.419Z,6936.00
2019-03-08T12:27:37.412Z,6848.00
2019-03-08T12:28:37.396Z,6944.00
2019-03-08T12:29:37.430Z,6480.00
2019-03-08T12:30:37.400Z,6752.00
2019-03-08T12:31:37.364Z,5820.00
2019-03-08T12:32:37.357Z,5868.00
2019-03-08T12:33:37.361Z,6000.00
2019-03-08T12:34:37.331Z,5936.00
2019-03-08T12:35:37.335Z,6068.00
2019-03-08T12:36:37.330Z,6040.00
2019-03-08T12:37:37.351Z,6040.00
2019-03-08T12:38:37.322Z,5624.00
2019-03-08T12:39:37.286Z,5692.00
2019-03-08T12:40:37.278Z,5476.00